| Date | Time | Temp. (oF) | Dew Point (oF) | Rel. Hum. (%) | Press. (in.) | Wind Dir. | Wind Speed (mph) | Hourly Rainfall (in.) |
|
|---|---|---|---|---|---|---|---|---|---|
| 1 | 01/17 | 00:00 | 25 | 24 | 98 | 30.25 | WNW | 2 | 0.00 |
| 2 | 01/16 | 23:00 | 25 | 24 | 96 | 30.25 | NNW | 4 | 0.00 |
| 3 | 01/16 | 22:00 | 25 | 23 | 92 | 30.27 | N | 8 | 0.00 |
| 4 | 01/16 | 21:00 | 27 | 22 | 83 | 30.29 | NW | 7 | 0.00 |
| 5 | 01/16 | 20:00 | 28 | 21 | 75 | 30.27 | NE | 7 | 0.00 |
| 6 | 01/16 | 19:00 | 29 | 20 | 70 | 30.27 | N | 5 | 0.00 |
| 7 | 01/16 | 18:00 | 29 | 20 | 69 | 30.26 | NE | 7 | 0.00 |
| 8 | 01/16 | 17:00 | 30 | 18 | 63 | 30.27 | NE | 9 | 0.00 |
| 9 | 01/16 | 16:00 | 31 | 18 | 60 | 30.28 | NNE | 6 | 0.00 |
| 10 | 01/16 | 15:00 | 31 | 19 | 61 | 30.31 | ENE | 11 | 0.00 |
| 11 | 01/16 | 14:00 | 31 | 18 | 59 | 30.34 | ENE | 8 | 0.00 |
| 12 | 01/16 | 13:00 | 32 | 20 | 62 | 30.39 | NE | 8 | 0.00 |
| 13 | 01/16 | 12:00 | 31 | 18 | 60 | 30.45 | ENE | 14 | 0.00 |
| 14 | 01/16 | 11:00 | 29 | 18 | 65 | 30.51 | NE | 1 | 0.00 |
| 15 | 01/16 | 10:00 | 27 | 19 | 73 | 30.55 | NE | 4 | 0.00 |
| 16 | 01/16 | 09:00 | 24 | 19 | 81 | 30.57 | NE | 2 | 0.00 |
| 17 | 01/16 | 08:00 | 23 | 18 | 82 | 30.58 | NE | 4 | 0.00 |
| 18 | 01/16 | 07:00 | 22 | 18 | 86 | 30.59 | N | 3 | 0.00 |
| 19 | 01/16 | 06:00 | 23 | 19 | 85 | 30.60 | NNW | 3 | 0.00 |
| 20 | 01/16 | 05:00 | 23 | 19 | 86 | 30.60 | NNW | 3 | 0.00 |
| 21 | 01/16 | 04:00 | 23 | 19 | 85 | 30.61 | NE | 2 | 0.00 |
| 22 | 01/16 | 03:00 | 23 | 19 | 86 | 30.64 | NE | 2 | 0.00 |
| 23 | 01/16 | 02:00 | 23 | 20 | 90 | 30.66 | ENE | 4 | 0.00 |
| 24 | 01/16 | 01:00 | 23 | 20 | 91 | 30.68 | ENE | 0 | 0.00 |